createdAt,value
2018-03-30T00:04:22.142Z,98655.18
2018-03-30T00:06:49.824Z,98655.98
2018-03-30T00:09:29.094Z,98660.50
2018-03-30T00:11:56.729Z,98649.66
2018-03-30T00:14:24.343Z,98660.81
2018-03-30T00:16:51.925Z,98655.75
2018-03-30T00:19:19.564Z,98651.19
2018-03-30T00:21:47.175Z,98655.21
2018-03-30T00:24:14.761Z,98659.77
2018-03-30T00:26:43.236Z,98652.22
2018-03-30T00:29:11.418Z,98648.53
2018-03-30T00:31:38.997Z,98651.20
2018-03-30T00:34:06.658Z,98662.63
2018-03-30T00:36:34.228Z,98649.17
2018-03-30T00:39:01.810Z,98643.16
2018-03-30T00:41:30.150Z,98649.78
2018-03-30T00:43:57.744Z,98655.82
2018-03-30T00:46:25.337Z,98662.80
2018-03-30T00:48:53.060Z,98662.31
2018-03-30T00:51:20.664Z,98666.96
2018-03-30T00:53:48.346Z,98677.30
2018-03-30T00:56:16.309Z,98668.55
2018-03-30T00:58:43.998Z,98659.59
2018-03-30T01:01:12.331Z,98669.41
2018-03-30T01:03:40.056Z,98667.09
2018-03-30T01:06:07.755Z,98665.14
2018-03-30T01:08:35.342Z,98668.17
2018-03-30T01:11:08.517Z,98670.14
2018-03-30T01:13:36.990Z,98674.45
2018-03-30T01:16:04.650Z,98679.09
2018-03-30T01:18:32.700Z,98669.52
2018-03-30T01:21:00.382Z,98666.63
2018-03-30T01:23:27.968Z,98675.67
2018-03-30T01:25:55.629Z,98673.91
2018-03-30T01:28:23.246Z,98679.98
2018-03-30T01:30:50.862Z,98678.78
2018-03-30T01:33:18.529Z,98676.89
2018-03-30T01:35:46.104Z,98681.33
2018-03-30T01:38:13.785Z,98681.52
2018-03-30T01:40:41.407Z,98676.70
2018-03-30T01:43:09.197Z,98676.83
2018-03-30T01:45:36.777Z,98678.95
2018-03-30T01:48:04.693Z,98678.53
2018-03-30T01:50:32.281Z,98690.02
2018-03-30T01:52:59.870Z,98687.77
2018-03-30T01:55:27.567Z,98688.81
2018-03-30T01:57:55.219Z,98693.25
2018-03-30T02:00:22.813Z,98688.39
2018-03-30T02:02:50.436Z,98692.63
2018-03-30T02:05:18.030Z,98695.30
2018-03-30T02:07:45.598Z,98699.88
2018-03-30T02:10:13.508Z,98690.02
2018-03-30T02:12:41.153Z,98699.61
2018-03-30T02:15:08.740Z,98706.79
2018-03-30T02:17:37.202Z,98707.44
2018-03-30T02:20:04.833Z,98708.68
2018-03-30T02:22:32.512Z,98711.06
2018-03-30T02:25:00.527Z,98721.07
2018-03-30T02:27:28.191Z,98718.03
2018-03-30T02:29:55.764Z,98721.06
2018-03-30T02:32:23.940Z,98722.17
2018-03-30T02:34:52.126Z,98721.84
2018-03-30T02:37:19.726Z,98716.69
2018-03-30T02:39:47.382Z,98711.07
2018-03-30T02:42:14.978Z,98716.19
2018-03-30T02:44:42.638Z,98716.61
2018-03-30T02:47:10.297Z,98735.39
2018-03-30T02:49:38.763Z,98731.61
2018-03-30T02:52:06.344Z,98738.00
2018-03-30T02:54:34.011Z,98729.70
2018-03-30T02:57:01.600Z,98720.95
2018-03-30T02:59:30.251Z,98718.63
2018-03-30T03:01:58.217Z,98723.41
2018-03-30T03:04:25.860Z,98724.97
2018-03-30T03:06:53.450Z,98723.83
2018-03-30T03:09:21.100Z,98724.77
2018-03-30T03:11:48.693Z,98725.60
2018-03-30T03:14:16.292Z,98729.17
2018-03-30T03:16:43.927Z,98731.42
2018-03-30T03:19:11.525Z,98732.03
2018-03-30T03:21:39.129Z,98736.69
2018-03-30T03:24:06.901Z,98742.09
2018-03-30T03:26:34.493Z,98747.02
2018-03-30T03:29:02.095Z,98749.27
2018-03-30T03:31:30.265Z,98747.28
2018-03-30T03:33:57.859Z,98754.66
2018-03-30T03:36:25.439Z,98759.52
2018-03-30T03:38:53.280Z,98757.77
2018-03-30T03:41:21.234Z,98757.38
2018-03-30T03:43:48.812Z,98758.72
2018-03-30T03:46:16.965Z,98756.69
2018-03-30T03:48:44.554Z,98761.23
2018-03-30T03:51:12.147Z,98767.50
2018-03-30T03:53:39.802Z,98775.39
2018-03-30T03:56:07.442Z,98771.71
2018-03-30T03:58:35.025Z,98773.97
2018-03-30T04:01:02.706Z,98776.97
2018-03-30T04:03:30.280Z,98787.11
2018-03-30T04:05:57.857Z,98785.14
2018-03-30T04:08:27.228Z,98787.53
2018-03-30T04:10:54.826Z,98792.39
2018-03-30T04:13:22.422Z,98791.20
2018-03-30T04:15:50.065Z,98802.38
2018-03-30T04:18:17.654Z,98802.78
2018-03-30T04:20:45.308Z,98799.62
2018-03-30T04:23:13.477Z,98806.97
2018-03-30T04:25:41.077Z,98797.77
2018-03-30T04:28:08.659Z,98801.45
2018-03-30T04:30:36.348Z,98802.53
2018-03-30T04:33:03.925Z,98798.27
2018-03-30T04:35:31.514Z,98793.98
2018-03-30T04:37:59.216Z,98791.11
2018-03-30T04:40:26.858Z,98794.72
2018-03-30T04:42:54.455Z,98803.41
2018-03-30T04:45:22.098Z,98800.91
2018-03-30T04:47:49.881Z,98803.05
2018-03-30T04:50:17.479Z,98801.08
2018-03-30T04:52:45.107Z,98798.06
2018-03-30T04:55:12.779Z,98797.13
2018-03-30T04:57:40.392Z,98797.75
2018-03-30T05:00:08.051Z,98796.44
2018-03-30T05:02:36.366Z,98797.09
2018-03-30T05:05:03.987Z,98793.36
2018-03-30T05:07:31.644Z,98794.84
2018-03-30T05:09:59.294Z,98795.16
2018-03-30T05:12:26.912Z,98790.45
2018-03-30T05:14:54.559Z,98798.94
2018-03-30T05:17:22.147Z,98789.64
2018-03-30T05:19:49.723Z,98791.42
2018-03-30T05:22:17.356Z,98794.35
2018-03-30T05:24:44.958Z,98805.52
2018-03-30T05:27:12.594Z,98803.87
2018-03-30T05:29:40.456Z,98808.98
2018-03-30T05:32:08.117Z,98813.73
2018-03-30T05:34:35.728Z,98809.83
2018-03-30T05:37:03.379Z,98805.63
2018-03-30T05:39:30.982Z,98810.44
2018-03-30T05:41:58.582Z,98826.75
2018-03-30T05:44:26.266Z,98824.63
2018-03-30T05:46:53.935Z,98829.33
2018-03-30T05:49:21.686Z,98833.50
2018-03-30T05:51:49.347Z,98828.49
2018-03-30T05:54:16.940Z,98832.20
2018-03-30T05:56:44.555Z,98835.59
2018-03-30T05:59:12.200Z,98847.77
2018-03-30T06:01:39.808Z,98843.41
2018-03-30T06:04:07.407Z,98844.97
2018-03-30T06:06:35.070Z,98834.42
2018-03-30T06:09:02.709Z,98838.09
2018-03-30T06:11:30.322Z,98841.36
2018-03-30T06:13:57.965Z,98839.48
2018-03-30T06:16:25.568Z,98840.81
2018-03-30T06:18:53.165Z,98841.58
2018-03-30T06:21:20.818Z,98850.28
2018-03-30T06:23:48.434Z,98850.89
2018-03-30T06:26:16.020Z,98848.37
2018-03-30T06:28:43.649Z,98846.91
2018-03-30T06:31:11.251Z,98849.23
2018-03-30T06:33:38.824Z,98846.28
2018-03-30T06:36:06.452Z,98844.84
2018-03-30T06:38:34.045Z,98849.65
2018-03-30T06:41:01.645Z,98846.41
2018-03-30T06:43:29.269Z,98850.17
2018-03-30T06:45:56.852Z,98853.14
2018-03-30T06:48:24.484Z,98854.16
2018-03-30T06:50:52.760Z,98864.24
2018-03-30T06:53:20.410Z,98857.94
2018-03-30T06:55:48.001Z,98855.95
2018-03-30T06:58:15.735Z,98856.82
2018-03-30T07:00:43.330Z,98856.59
2018-03-30T07:03:10.929Z,98865.06
2018-03-30T07:05:38.799Z,98868.91
2018-03-30T07:08:06.483Z,98873.98
2018-03-30T07:10:34.103Z,98863.41
2018-03-30T07:13:01.985Z,98865.05
2018-03-30T07:15:29.627Z,98869.73
2018-03-30T07:17:57.303Z,98872.48
2018-03-30T07:20:24.937Z,98875.50
2018-03-30T07:22:52.529Z,98874.46
2018-03-30T07:25:20.149Z,98875.14
2018-03-30T07:27:48.641Z,98872.35
2018-03-30T07:30:16.233Z,98876.47
2018-03-30T07:32:43.825Z,98878.65
2018-03-30T07:35:11.490Z,98887.74
2018-03-30T07:37:39.094Z,98888.31
2018-03-30T07:40:06.771Z,98893.98
2018-03-30T07:42:34.414Z,98890.73
2018-03-30T07:45:02.027Z,98893.11
2018-03-30T07:47:29.634Z,98894.19
2018-03-30T07:49:57.315Z,98892.53
2018-03-30T07:52:25.124Z,98886.63
2018-03-30T07:54:52.706Z,98888.13
2018-03-30T07:57:20.698Z,98888.28
2018-03-30T07:59:48.375Z,98889.89
2018-03-30T08:02:15.978Z,98892.66
2018-03-30T08:04:43.916Z,98898.94
2018-03-30T08:07:11.503Z,98897.93
2018-03-30T08:09:39.109Z,98896.59
2018-03-30T08:12:06.849Z,98890.02
2018-03-30T08:14:34.423Z,98892.91
2018-03-30T08:17:02.002Z,98891.57
2018-03-30T08:19:29.661Z,98895.16
2018-03-30T08:21:57.298Z,98892.59
2018-03-30T08:24:25.125Z,98887.73
2018-03-30T08:26:52.752Z,98888.85
2018-03-30T08:29:20.360Z,98892.06
2018-03-30T08:31:48.194Z,98892.77
2018-03-30T08:34:15.853Z,98888.40
2018-03-30T08:36:43.506Z,98892.63
2018-03-30T08:39:11.097Z,98890.84
2018-03-30T08:41:38.751Z,98892.21
2018-03-30T08:44:06.342Z,98885.84
2018-03-30T08:46:33.935Z,98885.00
2018-03-30T08:49:05.390Z,98890.34
2018-03-30T08:51:32.994Z,98878.23
2018-03-30T08:54:00.781Z,98879.09
2018-03-30T08:56:28.426Z,98877.95
2018-03-30T08:58:56.079Z,98877.34
2018-03-30T09:01:23.671Z,98878.52
2018-03-30T09:03:51.570Z,98873.81
2018-03-30T09:06:19.228Z,98880.75
2018-03-30T09:08:46.831Z,98874.46
2018-03-30T09:11:14.483Z,98867.72
2018-03-30T09:13:42.095Z,98868.72
2018-03-30T09:16:09.707Z,98864.78
2018-03-30T09:18:37.415Z,98858.42
2018-03-30T09:21:05.090Z,98857.08
2018-03-30T09:23:32.743Z,98858.34
2018-03-30T09:26:00.455Z,98856.96
2018-03-30T09:28:28.044Z,98852.64
2018-03-30T09:30:55.678Z,98852.35
2018-03-30T09:33:30.317Z,98856.95
2018-03-30T09:35:58.015Z,98850.80
2018-03-30T09:38:25.602Z,98845.47
2018-03-30T09:40:53.538Z,98854.80
2018-03-30T09:43:21.140Z,98849.09
2018-03-30T09:45:48.736Z,98854.55
2018-03-30T09:48:16.871Z,98846.72
2018-03-30T09:50:44.453Z,98840.41
2018-03-30T09:53:12.044Z,98843.06
2018-03-30T09:55:40.146Z,98843.45
2018-03-30T09:58:07.736Z,98843.03
2018-03-30T10:00:35.357Z,98841.56
2018-03-30T10:03:04.770Z,98834.34
2018-03-30T10:05:32.429Z,98830.02
2018-03-30T10:08:00.022Z,98832.86
2018-03-30T10:10:27.690Z,98825.09
2018-03-30T10:12:55.326Z,98821.48
2018-03-30T10:15:22.995Z,98821.20
2018-03-30T10:17:51.333Z,98830.50
2018-03-30T10:20:18.988Z,98836.16
2018-03-30T10:22:47.520Z,98829.14
2018-03-30T10:25:15.221Z,98826.06
2018-03-30T10:27:42.787Z,98820.45
2018-03-30T10:30:10.392Z,98812.30
2018-03-30T10:32:38.336Z,98808.99
2018-03-30T10:35:06.860Z,98815.13
2018-03-30T10:37:34.519Z,98806.47
2018-03-30T10:40:02.179Z,98805.91
2018-03-30T10:42:29.784Z,98799.84
2018-03-30T10:44:57.397Z,98794.44
2018-03-30T10:47:25.046Z,98791.95
2018-03-30T10:49:52.623Z,98794.15
2018-03-30T10:52:20.270Z,98792.55
2018-03-30T10:54:47.903Z,98789.19
2018-03-30T10:57:15.562Z,98783.66
2018-03-30T10:59:43.532Z,98768.42
2018-03-30T11:02:11.172Z,98765.77
2018-03-30T11:04:38.787Z,98773.36
2018-03-30T11:07:06.476Z,98763.79
2018-03-30T11:09:34.134Z,98771.86
2018-03-30T11:12:01.728Z,98774.13
2018-03-30T11:14:29.410Z,98763.98
2018-03-30T11:16:57.038Z,98764.97
2018-03-30T11:19:24.699Z,98766.49
2018-03-30T11:21:52.298Z,98763.40
2018-03-30T11:24:19.976Z,98766.78
2018-03-30T11:26:48.343Z,98766.42
2018-03-30T11:29:16.953Z,98764.14
2018-03-30T11:31:44.655Z,98762.58
2018-03-30T11:34:12.344Z,98758.11
2018-03-30T11:36:39.940Z,98765.73
2018-03-30T11:39:07.588Z,98755.77
2018-03-30T11:41:35.243Z,98758.43
2018-03-30T11:44:02.940Z,98751.67
2018-03-30T11:46:30.684Z,98743.73
2018-03-30T11:48:58.313Z,98740.73
2018-03-30T11:51:25.951Z,98734.73
2018-03-30T11:53:53.899Z,98722.91
2018-03-30T11:56:21.712Z,98728.00
2018-03-30T11:58:49.875Z,98725.52
2018-03-30T12:01:17.772Z,98722.25
2018-03-30T12:03:45.652Z,98726.95
2018-03-30T12:06:13.540Z,98720.24
2018-03-30T12:08:41.718Z,98725.34
2018-03-30T12:11:09.356Z,98714.33
2018-03-30T12:13:37.165Z,98718.00
2018-03-30T12:16:04.968Z,98717.83
2018-03-30T12:18:32.770Z,98723.17
2018-03-30T12:21:00.634Z,98720.89
2018-03-30T12:23:29.635Z,98717.22
2018-03-30T12:25:57.422Z,98711.17
2018-03-30T12:28:25.291Z,98715.02
2018-03-30T12:30:53.257Z,98711.95
2018-03-30T12:33:21.114Z,98713.05
2018-03-30T12:35:48.983Z,98705.69
2018-03-30T12:38:16.895Z,98709.41
2018-03-30T12:40:44.795Z,98706.45
2018-03-30T12:43:12.657Z,98712.53
2018-03-30T12:45:40.889Z,98714.08
2018-03-30T12:48:08.886Z,98709.22
2018-03-30T12:50:36.721Z,98702.19
2018-03-30T12:53:04.589Z,98695.25
2018-03-30T12:55:32.390Z,98683.63
2018-03-30T12:58:00.205Z,98680.31
2018-03-30T13:00:28.645Z,98685.95
2018-03-30T13:02:57.273Z,98683.35
2018-03-30T13:05:25.224Z,98691.25
2018-03-30T13:07:53.147Z,98694.96
2018-03-30T13:10:21.053Z,98694.16
2018-03-30T13:12:49.290Z,98686.28
2018-03-30T13:15:17.139Z,98683.64
2018-03-30T13:17:45.034Z,98683.14
2018-03-30T13:20:12.873Z,98676.58
2018-03-30T13:22:41.024Z,98673.13
2018-03-30T13:25:08.791Z,98669.75
2018-03-30T13:27:36.578Z,98667.70
2018-03-30T13:30:04.562Z,98668.32
2018-03-30T13:32:32.452Z,98667.84
2018-03-30T13:35:00.329Z,98663.11
2018-03-30T13:37:28.235Z,98662.57
2018-03-30T13:39:56.097Z,98659.89
2018-03-30T13:42:23.803Z,98657.10
2018-03-30T13:44:52.521Z,98651.95
2018-03-30T13:47:21.195Z,98653.92
2018-03-30T13:49:49.692Z,98644.65
2018-03-30T13:52:48.088Z,98638.92
2018-03-30T13:55:16.744Z,98641.12
2018-03-30T13:57:48.135Z,98639.87
2018-03-30T14:00:25.940Z,98632.13
2018-03-30T14:03:16.604Z,98640.06
2018-03-30T14:08:46.969Z,98643.06
2018-03-30T14:11:15.932Z,98646.90
2018-03-30T14:13:43.802Z,98639.24
2018-03-30T14:16:16.318Z,98641.54
2018-03-30T14:18:46.915Z,98644.54
2018-03-30T14:21:15.862Z,98636.91
2018-03-30T14:23:43.788Z,98642.25
2018-03-30T14:26:14.238Z,98639.91
2018-03-30T14:28:59.851Z,98637.55
2018-03-30T14:31:36.503Z,98639.34
2018-03-30T14:34:05.651Z,98627.63
2018-03-30T14:36:40.160Z,98634.70
2018-03-30T14:39:24.783Z,98620.80
2018-03-30T14:41:53.698Z,98618.74
2018-03-30T14:44:54.118Z,98617.55
2018-03-30T14:47:30.679Z,98621.94
2018-03-30T14:50:08.568Z,98620.63
2018-03-30T14:52:57.094Z,98619.59
2018-03-30T14:55:43.543Z,98614.91
2018-03-30T14:58:25.163Z,98613.63
2018-03-30T15:01:08.774Z,98614.95
2018-03-30T15:03:39.847Z,98618.94
2018-03-30T15:06:12.440Z,98612.28
2018-03-30T15:08:44.125Z,98609.08
2018-03-30T15:11:22.855Z,98612.36
2018-03-30T15:14:02.250Z,98612.33
2018-03-30T15:16:34.663Z,98610.51
2018-03-30T15:19:06.347Z,98612.02
2018-03-30T15:21:35.644Z,98618.42
2018-03-30T15:24:06.356Z,98611.42
2018-03-30T15:26:36.302Z,98610.38
2018-03-30T15:29:04.968Z,98610.84
2018-03-30T15:31:40.621Z,98610.95
2018-03-30T15:34:11.372Z,98612.94
2018-03-30T15:39:39.230Z,98621.41
2018-03-30T15:42:07.462Z,98616.61
2018-03-30T15:44:35.427Z,98614.05
2018-03-30T15:47:03.348Z,98623.33
2018-03-30T15:49:31.201Z,98623.30
2018-03-30T15:52:00.943Z,98630.16
2018-03-30T15:54:28.249Z,98625.02
2018-03-30T15:56:58.204Z,98630.05
2018-03-30T15:59:25.959Z,98632.79
2018-03-30T16:01:53.895Z,98632.61
2018-03-30T16:04:22.553Z,98631.14
2018-03-30T16:06:50.501Z,98629.48
2018-03-30T16:09:20.109Z,98628.69
2018-03-30T16:11:49.075Z,98634.80
2018-03-30T16:14:17.070Z,98640.45
2018-03-30T16:16:45.016Z,98634.77
2018-03-30T16:19:13.325Z,98639.77
2018-03-30T16:21:40.603Z,98643.52
2018-03-30T16:24:07.898Z,98641.88
2018-03-30T16:26:35.290Z,98644.52
2018-03-30T16:29:02.636Z,98643.11
2018-03-30T16:31:30.769Z,98652.82
2018-03-30T16:33:58.383Z,98657.69
2018-03-30T16:36:25.669Z,98649.95
2018-03-30T16:38:52.942Z,98652.80
2018-03-30T16:41:20.324Z,98654.42
2018-03-30T16:43:47.627Z,98657.98
2018-03-30T16:46:14.937Z,98654.71
2018-03-30T16:48:42.319Z,98657.13
2018-03-30T16:51:10.286Z,98657.30
2018-03-30T16:53:37.665Z,98659.61
2018-03-30T16:56:05.091Z,98660.00
2018-03-30T16:58:32.432Z,98660.41
2018-03-30T17:00:59.852Z,98663.75
2018-03-30T17:03:27.630Z,98664.88
2018-03-30T17:05:55.317Z,98671.99
2018-03-30T17:08:22.639Z,98673.22
2018-03-30T17:10:50.581Z,98677.00
2018-03-30T17:13:17.916Z,98675.51
2018-03-30T17:15:45.257Z,98684.34
2018-03-30T17:18:13.304Z,98690.66
2018-03-30T17:20:40.617Z,98700.53
2018-03-30T17:23:08.018Z,98704.36
2018-03-30T17:25:35.421Z,98696.53
2018-03-30T17:28:02.944Z,98701.09
2018-03-30T17:30:30.298Z,98705.56
2018-03-30T17:32:58.949Z,98705.56
2018-03-30T17:35:26.346Z,98714.88
2018-03-30T17:37:53.691Z,98715.97
2018-03-30T17:40:21.208Z,98723.27
2018-03-30T17:42:49.629Z,98724.03
2018-03-30T17:45:16.979Z,98726.44
2018-03-30T17:47:44.477Z,98736.03
2018-03-30T17:50:11.862Z,98739.52
2018-03-30T17:52:39.209Z,98738.60
2018-03-30T17:55:06.581Z,98736.88
2018-03-30T17:57:33.915Z,98736.88
2018-03-30T18:00:01.247Z,98745.45
2018-03-30T18:02:28.662Z,98750.08
2018-03-30T18:04:56.947Z,98759.73
2018-03-30T18:07:24.354Z,98759.40
2018-03-30T18:09:52.022Z,98756.77
2018-03-30T18:12:19.431Z,98757.09
2018-03-30T18:14:46.780Z,98756.30
2018-03-30T18:17:14.173Z,98754.35
2018-03-30T18:19:41.577Z,98756.52
2018-03-30T18:22:09.720Z,98759.00
2018-03-30T18:24:37.148Z,98764.44
2018-03-30T18:27:04.477Z,98773.41
2018-03-30T18:29:31.845Z,98767.65
2018-03-30T18:31:59.558Z,98780.18
2018-03-30T18:34:26.936Z,98780.29
2018-03-30T18:36:54.281Z,98777.83
2018-03-30T18:39:21.797Z,98780.63
2018-03-30T18:41:49.174Z,98782.59
2018-03-30T18:44:16.494Z,98785.92
2018-03-30T18:46:43.862Z,98797.03
2018-03-30T18:49:11.186Z,98793.10
2018-03-30T18:51:38.899Z,98795.89
2018-03-30T18:54:06.287Z,98794.66
2018-03-30T18:56:33.628Z,98798.98
2018-03-30T18:59:00.963Z,98802.13
2018-03-30T19:01:28.730Z,98797.58
2018-03-30T19:03:56.123Z,98793.34
2018-03-30T19:06:23.529Z,98793.55
2018-03-30T19:08:51.066Z,98796.71
2018-03-30T19:11:18.411Z,98803.22
2018-03-30T19:13:45.743Z,98804.31
2018-03-30T19:16:13.390Z,98802.64
2018-03-30T19:18:40.740Z,98806.83
2018-03-30T19:21:08.100Z,98807.48
2018-03-30T19:23:35.488Z,98813.73
2018-03-30T19:26:02.837Z,98803.37
2018-03-30T19:28:30.176Z,98805.41
2018-03-30T19:30:57.973Z,98807.70
2018-03-30T19:33:25.326Z,98806.52
2018-03-30T19:35:52.659Z,98808.26
2018-03-30T19:38:20.059Z,98799.08
2018-03-30T19:40:47.383Z,98796.28
2018-03-30T19:43:14.782Z,98800.85
2018-03-30T19:45:42.461Z,98799.32
2018-03-30T19:48:09.804Z,98797.27
2018-03-30T19:50:37.121Z,98802.05
2018-03-30T19:53:04.743Z,98804.20
2018-03-30T19:55:32.076Z,98804.61
2018-03-30T19:57:59.400Z,98795.98
2018-03-30T20:00:26.952Z,98793.42
2018-03-30T20:02:55.038Z,98800.37
2018-03-30T20:05:22.572Z,98793.89
2018-03-30T20:07:49.944Z,98800.16
2018-03-30T20:10:17.553Z,98799.79
2018-03-30T20:12:44.896Z,98802.27
2018-03-30T20:15:12.343Z,98793.00
2018-03-30T20:17:39.702Z,98792.06
2018-03-30T20:20:07.055Z,98792.02
2018-03-30T20:22:34.494Z,98795.46
2018-03-30T20:25:01.836Z,98800.73
2018-03-30T20:27:29.165Z,98800.40
2018-03-30T20:29:56.756Z,98803.13
2018-03-30T20:32:24.094Z,98799.56
2018-03-30T20:34:51.405Z,98808.50
2018-03-30T20:37:19.468Z,98807.84
2018-03-30T20:39:46.802Z,98799.96
2018-03-30T20:42:14.136Z,98801.91
2018-03-30T20:44:41.506Z,98797.28
2018-03-30T20:47:08.822Z,98797.73
2018-03-30T20:49:36.124Z,98798.64
2018-03-30T20:52:03.811Z,98794.55
2018-03-30T20:54:31.221Z,98793.25
2018-03-30T20:56:59.079Z,98795.27
2018-03-30T20:59:27.469Z,98795.45
2018-03-30T21:01:54.804Z,98797.91
2018-03-30T21:04:22.123Z,98795.47
2018-03-30T21:06:49.505Z,98799.88
2018-03-30T21:09:17.477Z,98798.55
2018-03-30T21:11:45.071Z,98795.58
2018-03-30T21:14:12.487Z,98789.19
2018-03-30T21:16:39.849Z,98797.88
2018-03-30T21:19:07.102Z,98799.14
2018-03-30T21:21:34.405Z,98793.06
2018-03-30T21:24:01.727Z,98793.50
2018-03-30T21:26:28.963Z,98795.20
2018-03-30T21:28:56.359Z,98805.08
2018-03-30T21:31:23.564Z,98802.30
2018-03-30T21:33:50.737Z,98799.02
2018-03-30T21:36:18.046Z,98796.80
2018-03-30T21:38:45.175Z,98786.15
2018-03-30T21:41:12.568Z,98778.95
2018-03-30T21:43:39.943Z,98782.14
2018-03-30T21:46:07.041Z,98796.33
2018-03-30T21:48:34.069Z,98793.97
2018-03-30T21:51:01.178Z,98796.55
2018-03-30T21:53:28.200Z,98793.19
2018-03-30T21:55:55.244Z,98796.03
2018-03-30T21:58:22.339Z,98793.94
2018-03-30T22:00:49.360Z,98796.81
2018-03-30T22:03:16.388Z,98797.23
2018-03-30T22:05:43.782Z,98789.47
2018-03-30T22:08:10.815Z,98780.41
2018-03-30T22:10:37.851Z,98788.42
2018-03-30T22:13:05.204Z,98784.21
2018-03-30T22:15:32.243Z,98788.27
2018-03-30T22:17:59.291Z,98793.89
2018-03-30T22:20:26.694Z,98790.18
2018-03-30T22:22:53.743Z,98792.66
2018-03-30T22:25:20.781Z,98783.45
2018-03-30T22:27:47.868Z,98787.94
2018-03-30T22:30:14.937Z,98783.63
2018-03-30T22:32:41.977Z,98786.44
2018-03-30T22:35:09.070Z,98782.81
2018-03-30T22:37:36.117Z,98788.13
2018-03-30T22:40:03.157Z,98787.45
2018-03-30T22:42:30.226Z,98782.20
2018-03-30T22:44:57.256Z,98777.10
2018-03-30T22:47:24.285Z,98780.11
2018-03-30T22:49:51.587Z,98783.84
2018-03-30T22:52:18.626Z,98789.25
2018-03-30T22:54:45.678Z,98785.59
2018-03-30T22:57:13.291Z,98784.92
2018-03-30T22:59:40.326Z,98787.14
2018-03-30T23:02:07.359Z,98780.34
2018-03-30T23:04:34.659Z,98771.56
2018-03-30T23:07:01.694Z,98776.97
2018-03-30T23:09:29.117Z,98773.34
2018-03-30T23:11:56.217Z,98773.19
2018-03-30T23:14:23.550Z,98770.83
2018-03-30T23:16:50.580Z,98768.64
2018-03-30T23:19:17.681Z,98766.28
2018-03-30T23:21:44.782Z,98769.05
2018-03-30T23:24:11.833Z,98775.95
2018-03-30T23:26:38.950Z,98770.31
2018-03-30T23:29:06.072Z,98773.31
2018-03-30T23:31:33.111Z,98777.62
2018-03-30T23:34:00.484Z,98778.71
2018-03-30T23:36:27.573Z,98787.08
2018-03-30T23:38:54.712Z,98778.41
2018-03-30T23:41:21.814Z,98782.62
2018-03-30T23:43:48.864Z,98779.44
2018-03-30T23:46:16.651Z,98774.63
2018-03-30T23:48:43.749Z,98769.43
2018-03-30T23:51:10.791Z,98764.62
2018-03-30T23:53:38.145Z,98769.16
2018-03-30T23:56:05.249Z,98770.93
2018-03-30T23:58:32.298Z,98764.34
